Flight Track Log - Related Links

Times and Time Zones

All times are in EDT time to prevent confusion due to time zone crossing. See the N363NH flight status page for this flight to view local times or setup timezone preferences in your user account.

Time Position Orientation Groundspeed Altitude Reporting Facility
EDT Latitude Longitude Course Direction KTS MPH feet Rate Location/Type
Sun 02:09:37 AM 33.8333 -118.1667 301° West 189 217 1,100  Level Southern California TRACON
Sun 02:10:37 AM 33.8667 -118.2333 301° West 244 281 4,200 3,250 Climbing Southern California TRACON
Sun 02:11:37 AM 33.8667 -118.3167 270° West 249 287 7,600 1,933 Climbing Southern California TRACON
Sun 02:13:06 AM 33.9258 -118.4186 305° West 265 305 9,000 1,007 Climbing Los Angeles Center
Sun 02:14:06 AM 34.0006 -118.4656 332° Northwest 280 322 10,100 1,488 Climbing Los Angeles Center
Sun 02:15:07 AM 34.0800 -118.5036 338° Northwest 302 348 12,000 1,884 Climbing Los Angeles Center
Sun 02:16:07 AM 34.1694 -118.5478 338° Northwest 321 369 13,900 1,736 Climbing Los Angeles Center
Sun 02:17:08 AM 34.2567 -118.5906 338° Northwest 336 387 15,500 1,636 Climbing Los Angeles Center
Sun 02:18:08 AM 34.3436 -118.6336 338° Northwest 338 389 17,200 1,537 Climbing Los Angeles Center
Sun 02:19:09 AM 34.4333 -118.6758 339° North 345 397 18,600 1,438 Climbing Los Angeles Center
Sun 02:20:09 AM 34.5247 -118.7206 338° Northwest 353 406 20,100 1,388 Climbing Los Angeles Center
Sun 02:21:10 AM 34.6172 -118.7664 338° Northwest 358 412 21,400 1,339 Climbing Los Angeles Center
Sun 02:22:10 AM 34.7106 -118.8153 337° Northwest 365 420 22,800 1,140 Climbing Los Angeles Center
Sun 02:23:11 AM 34.8067 -118.8633 338° Northwest 369 425 23,700 992 Climbing Los Angeles Center
Sun 02:24:11 AM 34.9114 -118.8997 344° North 394 453 24,800 1,091 Climbing Los Angeles Center
Sun 02:25:12 AM 35.0175 -118.9361 344° North 397 457 25,900 1,041 Climbing Los Angeles Center
Sun 02:26:12 AM 35.1267 -118.9742 344° North 407 468 26,900 1,041 Climbing Los Angeles Center
Sun 02:27:13 AM 35.2389 -119.0125 344° North 415 478 28,000 1,041 Climbing Los Angeles Center
Sun 02:28:13 AM 35.3514 -119.0506 345° North 420 483 29,000 1,091 Climbing Los Angeles Center
Sun 02:29:14 AM 35.4625 -119.0883 345° North 419 482 30,200 1,190 Climbing Los Angeles Center
Sun 02:30:14 AM 35.5708 -119.1236 345° North 413 475 31,400 1,050 Climbing Los Angeles Center
Sun 02:31:14 AM 35.6806 -119.1542 347° North 410 472 32,300 992 Climbing Los Angeles Center
Sun 02:32:15 AM 35.7892 -119.1861 347° North 407 468 33,400 1,041 Climbing Los Angeles Center
Sun 02:33:15 AM 35.8967 -119.2192 346° North 404 465 34,400 942 Climbing Los Angeles Center
Sun 02:34:16 AM 36.0028 -119.2508 346° North 400 460 35,300 1,041 Climbing Los Angeles Center
Sun 02:35:16 AM 36.1244 -119.2878 346° North 385 443 36,500 1,041 Climbing Los Angeles Center
Sun 02:36:17 AM 36.2225 -119.3175 346° North 371 427 37,400 744 Climbing Los Angeles Center
Sun 02:37:17 AM 36.3206 -119.3467 347° North 365 420 38,000 300 Climbing Los Angeles Center
Sun 02:38:17 AM 36.4214 -119.3758 347° North 371 427 38,000  Level Los Angeles Center
Sun 02:39:18 AM 36.5258 -119.4075 346° North 383 441 38,000  Level Los Angeles Center
Sun 02:40:18 AM 36.6336 -119.4419 346° North 397 457 38,000  Level Los Angeles Center
Sun 02:41:42 AM 36.7872 -119.4850 347° North 410 472 38,000  Level Oakland Center
Sun 02:42:42 AM 36.8986 -119.5192 346° North 412 474 38,000  Level Oakland Center
Sun 02:43:42 AM 37.0103 -119.5531 346° North 412 474 38,000  Level Oakland Center
Sun 02:44:43 AM 37.1222 -119.5878 346° North 415 478 38,000  Level Oakland Center
Sun 02:45:43 AM 37.2353 -119.6211 347° North 417 480 38,000  Level Oakland Center
Sun 02:46:43 AM 37.3467 -119.6553 346° North 415 478 38,000  Level Oakland Center
Sun 02:47:43 AM 37.4467 -119.6864 346° North 415 478 38,000  Level Oakland Center
Sun 02:48:44 AM 37.5583 -119.7203 346° North 414 476 38,000  Level Oakland Center
Sun 02:49:44 AM 37.6694 -119.7556 346° North 413 475 38,000  Level Oakland Center
Sun 02:50:44 AM 37.8033 -119.7969 346° North 413 475 38,000  Level Oakland Center
Sun 02:51:44 AM 37.9150 -119.8311 346° North 414 476 38,000  Level Oakland Center
Sun 02:52:44 AM 38.0286 -119.8653 347° North 419 482 38,000  Level Oakland Center
Sun 02:53:45 AM 38.1411 -119.9011 346° North 418 481 38,000  Level Oakland Center
Sun 02:54:45 AM 38.2525 -119.9367 346° North 416 479 38,000  Level Oakland Center
Sun 02:55:45 AM 38.3650 -119.9714 346° North 418 481 38,000  Level Oakland Center
Sun 02:56:45 AM 38.4753 -120.0056 346° North 411 473 38,000  Level Oakland Center
Sun 02:57:45 AM 38.5869 -120.0417 346° North 413 475 38,000  Level Oakland Center
Sun 02:58:46 AM 38.6972 -120.0772 346° North 412 474 38,000  Level Oakland Center
Sun 02:59:46 AM 38.8094 -120.1122 346° North 415 478 38,000  Level Oakland Center
Sun 03:00:46 AM 38.9186 -120.1461 346° North 409 471 38,000  Level Oakland Center
Sun 03:01:46 AM 39.0292 -120.1828 346° North 410 472 38,000  Level Oakland Center
Sun 03:02:47 AM 39.1383 -120.2169 346° North 407 468 38,000  Level Oakland Center
Sun 03:03:46 AM 39.2492 -120.2533 346° North 410 472 38,000  Level Oakland Center
Sun 03:04:47 AM 39.3603 -120.2889 346° North 411 473 38,000  Level Oakland Center
Sun 03:05:47 AM 39.4708 -120.3244 346° North 410 472 38,000  Level Oakland Center
Sun 03:06:47 AM 39.5814 -120.3608 346° North 411 473 38,000  Level Oakland Center
Sun 03:07:47 AM 39.6914 -120.3975 346° North 409 471 38,000  Level Oakland Center
Sun 03:08:47 AM 39.8008 -120.4333 346° North 407 468 38,000  Level Oakland Center
Sun 03:09:48 AM 39.9092 -120.4683 346° North 403 464 38,000  Level Oakland Center
Sun 03:10:48 AM 40.0267 -120.5078 346° North 403 464 38,000  Level Oakland Center
Sun 03:11:48 AM 40.1356 -120.5436 346° North 405 466 38,000  Level Oakland Center
Sun 03:12:48 AM 40.2425 -120.5797 346° North 400 460 38,000  Level Oakland Center
Sun 03:13:48 AM 40.3503 -120.6144 346° North 399 459 38,000  Level Oakland Center
Sun 03:14:48 AM 40.4558 -120.6506 345° North 396 456 38,000  Level Oakland Center
Sun 03:15:48 AM 40.5647 -120.6881 345° North 399 459 38,000  Level Oakland Center
Sun 03:16:42 AM 40.6517 -120.7178 345° North 395 455 38,000  Level Seattle Center
Sun 03:17:42 AM 40.7589 -120.7533 346° North 396 456 38,000  Level Seattle Center
Sun 03:18:42 AM 40.8656 -120.7875 346° North 396 456 38,000  Level Seattle Center
Sun 03:19:42 AM 40.9700 -120.8275 344° North 391 450 38,000  Level Seattle Center
Sun 03:20:42 AM 41.0767 -120.8631 346° North 395 455 38,000  Level Seattle Center
Sun 03:21:42 AM 41.1842 -120.8983 346° North 398 458 38,000  Level Seattle Center
Sun 03:22:42 AM 41.2908 -120.9350 346° North 396 456 38,000  Level Seattle Center
Sun 03:23:42 AM 41.3956 -120.9714 345° North 391 450 38,000  Level Seattle Center
Sun 03:24:42 AM 41.5003 -121.0083 345° North 391 450 38,000  Level Seattle Center
Sun 03:25:43 AM 41.6047 -121.0450 345° North 389 448 38,000  Level Seattle Center
Sun 03:26:43 AM 41.7083 -121.0814 345° North 388 447 38,000  Level Seattle Center
Sun 03:27:43 AM 41.8131 -121.1178 345° North 393 452 38,000  Level Seattle Center
Sun 03:28:43 AM 41.9181 -121.1542 346° North 391 450 38,000  Level Seattle Center
Sun 03:29:43 AM 42.0219 -121.1911 345° North 392 451 38,000  Level Seattle Center
Sun 03:30:43 AM 42.1261 -121.2272 346° North 394 453 38,000  Level Seattle Center
Sun 03:31:43 AM 42.2306 -121.2647 345° North 394 453 38,000  Level Seattle Center
Sun 03:32:43 AM 42.3347 -121.3025 345° North 392 451 38,000  Level Seattle Center
Sun 03:33:43 AM 42.4386 -121.3386 346° North 390 449 38,000  Level Seattle Center
Sun 03:34:44 AM 42.5433 -121.3758 345° North 390 449 38,000  Level Seattle Center
Sun 03:35:44 AM 42.6467 -121.4122 345° North 387 445 38,000  Level Seattle Center
Sun 03:36:44 AM 42.7497 -121.4506 345° North 385 443 38,000  Level Seattle Center
Sun 03:37:44 AM 42.8539 -121.4869 346° North 386 444 38,000  Level Seattle Center
Sun 03:38:44 AM 42.9567 -121.5233 345° North 385 443 38,000  Level Seattle Center
Sun 03:39:44 AM 43.0617 -121.5642 344° North 390 449 38,000  Level Seattle Center
Sun 03:40:44 AM 43.1856 -121.6111 345° North 388 447 38,000  Level Seattle Center
Sun 03:41:44 AM 43.2875 -121.6478 345° North 382 440 38,000  Level Seattle Center
Sun 03:42:44 AM 43.3903 -121.6861 345° North 382 440 38,000  Level Seattle Center
Sun 03:43:44 AM 43.4925 -121.7233 345° North 380 437 38,000  Level Seattle Center
Sun 03:44:44 AM 43.5947 -121.7606 345° North 381 438 38,000  Level Seattle Center
Sun 03:45:44 AM 43.6978 -121.8008 344° North 384 442 38,000  Level Seattle Center
Sun 03:46:45 AM 43.8006 -121.8383 345° North 382 440 38,000 50 Level Seattle Center
Sun 03:47:45 AM 43.8967 -121.8728 346° North 385 443 38,100 550 Climbing Seattle Center
Sun 03:48:45 AM 43.9919 -121.9058 346° North 378 435 39,100 750 Climbing Seattle Center
Sun 03:49:45 AM 44.0892 -121.9436 344° North 367 422 39,600 450 Climbing Seattle Center
Sun 03:50:45 AM 44.1903 -121.9808 345° North 374 430 40,000 200 Climbing Seattle Center
Sun 03:51:45 AM 44.2931 -122.0211 344° North 383 441 40,000  Level Seattle Center
Sun 03:52:45 AM 44.3997 -122.0614 345° North 395 455 40,000  Level Seattle Center
Sun 03:53:45 AM 44.5072 -122.1033 344° North 401 461 40,000  Level Seattle Center
Sun 03:54:45 AM 44.6150 -122.1447 345° North 403 464 40,000  Level Seattle Center
Sun 03:55:45 AM 44.7247 -122.1867 345° North 407 468 40,000  Level Seattle Center
Sun 03:56:45 AM 44.8317 -122.2292 344° North 404 465 40,000  Level Seattle Center
Sun 03:57:45 AM 44.9547 -122.2775 344° North 405 466 40,000  Level Seattle Center
Sun 03:58:45 AM 45.0611 -122.3172 345° North 403 464 40,000  Level Seattle Center
Sun 03:59:46 AM 45.1675 -122.3600 344° North 401 461 40,000  Level Seattle Center
Sun 04:00:46 AM 45.2722 -122.4017 344° North 395 455 40,000  Level Seattle Center
Sun 04:01:46 AM 45.3775 -122.4431 345° North 395 455 40,000  Level Seattle Center
Sun 04:02:46 AM 45.4814 -122.4833 345° North 390 449 40,000  Level Seattle Center
Sun 04:03:46 AM 45.5875 -122.5264 344° North 394 453 40,000 -250 Level Seattle Center
Sun 04:04:46 AM 45.6933 -122.5697 344° North 397 457 39,500 -750 Descending Seattle Center
Sun 04:05:46 AM 45.8014 -122.6067 347° North 401 461 38,500 -1,000 Descending Seattle Center
Sun 04:06:46 AM 45.9086 -122.6322 351° North 397 457 37,500 -1,000 Descending Seattle Center
Sun 04:07:46 AM 46.0108 -122.6528 352° North 380 437 36,500 -1,200 Descending Seattle Center
Sun 04:08:46 AM 46.1142 -122.6817 349° North 379 436 35,100 -1,600 Descending Seattle Center
Sun 04:09:46 AM 46.2164 -122.7058 351° North 375 432 33,300 -1,750 Descending Seattle Center
Sun 04:10:46 AM 46.3131 -122.7297 350° North 359 413 31,600 -1,850 Descending Seattle Center
Sun 04:11:46 AM 46.4197 -122.7572 350° North 386 444 29,600 -2,200 Descending Seattle Center
Sun 04:12:46 AM 46.5317 -122.7917 348° North 409 471 27,200 -2,430 Descending Seattle Center
Sun 04:13:47 AM 46.6425 -122.8178 351° North 404 465 24,700 -2,571 Descending Seattle Center
Sun 04:13:49 AM 46.6547 -122.8242 340° North 409 471 24,500 -3,750 Descending Seattle Center
Sun 04:13:55 AM 46.6642 -122.8256 354° North 409 471 24,200 -2,276 Descending Seattle Center
Sun 04:14:47 AM 46.7550 -122.8447 352° North 410 472 22,300 -2,361 Descending Seattle Center
Sun 04:14:56 AM 46.7753 -122.8533 344° North 411 473 21,800 -2,354 Descending Seattle Center
Sun 04:16:00 AM 46.8866 -122.8733 347° North  Level FlightAware Approximate
Sun 04:16:57 AM 46.9819 -122.8822 347° North 348 400 17,200  Level Seattle Center
Sun 04:16:59 AM 46.9831 -122.8800 54° Northeast 365 420 17,200 -1,900 Level Seattle Center
Sun 04:17:57 AM 47.0717 -122.8147 27° Northeast 359 413 15,300 -1,900 Descending Seattle Center
Sun 04:17:59 AM 47.0708 -122.8119 114° Southeast 358 412 15,300 -1,475 Level Seattle Center
Sun 04:18:58 AM 47.1575 -122.7683 19° North 331 381 13,800 -1,500 Descending Seattle Center
Sun 04:18:59 AM 47.1589 -122.7681 North 336 387 13,800 -1,475 Level Seattle Center
Sun 04:19:59 AM 47.2458 -122.7206 20° North 334 384 12,300 -1,600 Descending Seattle Center
Sun 04:20:59 AM 47.3311 -122.6775 19° North 325 374 10,600 -1,850 Descending Seattle Center
Sun 04:21:59 AM 47.4106 -122.6394 18° North 307 353 8,600 -2,066 Descending Seattle Center
Sun 04:22:00 AM 47.4100 -122.6417 250° West 298 343 8,500 -2,000 Descending Seattle Center
Sun 04:22:59 AM 47.4889 -122.5992 20° North 299 344 6,600 -1,900 Descending Seattle Center
Sun 04:23:00 AM 47.4889 -122.6019 270° West 296 341 6,600 -2,100 Level Seattle Center
Sun 04:23:59 AM 47.5658 -122.5617 19° North 292 336 4,500 -2,066 Descending Seattle Center
Sun 04:24:01 AM 47.5656 -122.5633 256° West 290 334 4,500 -1,900 Level Seattle Center
Sun 04:24:59 AM 47.6222 -122.4931 40° Northeast 275 316 2,600 -1,869 Descending Seattle Center
Sun 04:25:02 AM 47.6214 -122.4933 193° South 274 315 2,600 -885 Level Seattle Center
Sun 04:26:00 AM 47.6172 -122.3925 93° East 246 283 1,700 -900 Descending Seattle Center
Sun 04:26:02 AM 47.6164 -122.3942 233° Southwest 226 260 1,700 -700 Level Seattle Center
Sun 04:27:00 AM 47.5850 -122.3489 136° Southeast 166 191 1,000 -689 Descending Seattle Center
Sun 04:27:03 AM 47.5825 -122.3472 156° South 137 158 1,000 -600 Level Seattle Center
Sun 04:28:00 AM 47.5544 -122.3239 151° Southeast 132 152 400 -600 Descending Seattle Center
Sun 04:28:03 AM 47.5542 -122.3236 146° Southeast 118 136 400  Level Seattle Center
Sun 04:30:00 AM 47.5300 -122.3020 77° East  Level Estimated
Sun 04:37:00 AM 47.5300 -122.3020 77° East  Level Estimated
Sun 04:38:00 AM 47.5300 -122.3020 77° East  Level Estimated

Login

Don't have an account? Register now (free) for customized features, flight alerts, and more!